Questo sito fa uso di cookie per migliorare l’esperienza di navigazione degli utenti e per raccogliere informazioni sull’utilizzo del sito stesso. Proseguendo nella navigazione si accetta l’uso dei cookie; in caso contrario è possibile abbandonare il sito.

[source: ADDS]
METAR
LIPA 300955Z 18004KT 9999 FEW040 26/19 Q1016 RMK SCT VIS MIN 9999 WIND THR05 00000KT WIND THR23 VRB05KT A3002 BLU =
LIPB 301050Z 16006KT 110V200 9999 FEW060CB 30/14 Q1014 =
LIPC 300955Z 08007KT CAVOK 26/20 Q1015 RMK FEW FEW200 VIS MIN 9999 WIND THR11 /////KT WIND THR29 07006KT BLU =
LIPE 301050Z 33005KT 290V020 CAVOK 29/15 Q1016 =
LIPF 300955Z 29002KT CAVOK 29/23 Q1016 RMK SKC VIS MIN 9999 =
LIPH 301050Z VRB04KT 9999 FEW050 28/17 Q1016 =
LIPI 300955Z /////KT CAVOK 26/18 Q1016 RMK SKC VIS MIN 9999 WIND THR06 17004KT WIND THR24 20004KT BLU =
LIPK 301050Z VRB03KT CAVOK 30/16 Q1015 =
LIPL 300955Z /////KT CAVOK 27/17 Q1015 RMK SKC VIS MIN 9999 WIND THR31 22003KT BLU =
LIPU 300600Z VRB02KT CAVOK 22/15 Q1015 =
LIPO 300550Z 24001KT 8000 NSC 22/15 Q1015 =
LIPQ 301050Z 19005KT 150V260 CAVOK 27/15 Q1016 =
LIPR 301045Z 05006KT CAVOK 26/19 Q1016 =
LIPS 300955Z 23002KT CAVOK 28/19 Q1016 RMK FEW FEW130 VIS MIN 9999 WIND THR26 12003KT WIND THR08 31002KT BLU =
LIPU 300600Z VRB02KT CAVOK 22/15 Q1015 =
LIPX 301050Z VRB04KT CAVOK 28/14 Q1016 =
LIPY 300950Z 03007KT 010V070 CAVOK 26/14 Q1016 =
LIPZ 301050Z 14010KT 110V170 CAVOK 25/19 Q1016 NOSIG =
LIVC 300955Z 34002KT 9999 FEW001TCU 13/08 Q1026 RMK SCT MON LIB VAL NIL VIS MIN 9999 =
LIVD 300955Z /////KT 9999 SCT030 22/16 Q1020 RMK SCT VIS MIN 9999 =
LIVE 300955Z 19007KT 9999 FEW020 21/09 Q1020 RMK FEW VIS MIN 9999 =
LIVF 300955Z 01005KT CAVOK 25/13 Q1017 RMK FEW FEW200 MON LIB VAL NIL VIS MIN 9999 =
LIVO 300955Z 13003KT 9999 SCT035 27/16 Q1016 RMK SCT VIS MIN 9999 =
LIVP 300955Z 28004KT 9000 BR FEW000TCU 14/10 Q1025 RMK BKN SCT200 MON E INVIS VAL E INVIS VIS MIN 6000 =
LIVR 300955Z 13010KT 9999 SCT020TCU SCT025 15/07 Q1023 RMK BKN MON CLD SCT VIS MIN 9999 =
LIVT 300955Z 00000KT CAVOK 25/17 Q1016 RMK SKC QUK 0 QUL 0 VIS MAR 20 KM VIS MIN 9999 =
LIMC 301050Z VRB05KT CAVOK 27/13 Q1017 NOSIG =
LIME 301050Z 21007KT 170V290 CAVOK 28/14 Q1016 NOSIG =
LIMF 301050Z 10006KT 050V130 CAVOK 27/14 Q1016 =
LIMG 300950Z 11009KT 9999 FEW030 24/19 Q1017 =
LIMH 300955Z /////KT 0500 FG VV/// 04/01 Q1030 RMK MON INVIS VAL INVIS VIS MIN 0500 =
LIMJ 301050Z 18004KT 150V240 9999 SCT020 24/19 Q1018 =
LIMK 300955Z 12003KT CAVOK 21/16 Q1017 RMK SKC VAL NIL VIS MIN 9999 =
LIML 301050Z 24006KT 200V280 CAVOK 28/11 Q1015 NOSIG =
LIMN 300955Z 14005KT 070V180 CAVOK 26/15 Q1016 RMK SKC VIS MIN 9999 BLU =
LIMS 300955Z 11005KT 020V160 CAVOK 28/14 Q1015 RMK FEW FEW200 VIS MIN 9999 WIND THR30 03004KT BLU =
LIMT 300955Z 03006KT CAVOK 18/11 Q1020 RMK SKC MON LIB VAL NIL VIS MIN 9999 =
LIMU 300955Z 03010KT 9999 FEW025 24/20 Q1017 RMK FEW QUK 1 QUL 1 SE VIS MAR 20 KM VIS MIN 9999 =
LIMV 300955Z /////KT 9999 FEW010 21/15 Q1019 RMK FEW MON LIB NC VAL NIL VIS MIN 9999 =
LIMY 300955Z VRB04KT 9999 FEW021 25/20 Q1018 RMK FEW VAL FOSCHIA VIS MIN 9999 =
TAF
TAF LIPA 300800Z 3009/3018 08006KT 9999 SCT040 =
TAF LIPB 300500Z 3006/3106 VRB05KT 9999 SCT040 BECMG 3010/3012 18012KT TEMPO 3012/3018 3000 SHRA =
TAF LIPC 300800Z 3009/3018 07005KT CAVOK =
TAF LIPE 300500Z 3006/3106 23006KT CAVOK =
TAF LIPH 300500Z 3006/3106 VRB05KT CAVOK BECMG 3011/3013 16010KT BECMG 3016/3018 VRB05KT =
TAF LIPI 300800Z 3009/3018 VRB05KT CAVOK TEMPO 3009/3018 18008KT FEW040 =
TAF LIPL 300800Z 3009/3018 VRB05KT CAVOK =
TAF LIPO 292300Z 3000/3024 VRB05KT CAVOK =
TAF LIPQ 300500Z 3006/3106 VRB04KT CAVOK BECMG 3010/3012 20010KT =
TAF LIPR 300800Z 3009/3018 05005KT CAVOK TEMPO 3012/3018 11015KT =
TAF LIPS 300800Z 3009/3018 12005KT CAVOK TEMPO 3011/3015 16012KT =
TAF LIPX 300800Z 3009/3018 VRB05KT CAVOK =
TAF LIPY 300500Z 3006/3106 VRB05KT 9999 FEW040 BECMG 3010/3012 12010KT BECMG 3016/3018 VRB05KT =
TAF LIPZ 300500Z 3006/3112 VRB05KT 9999 FEW050 BECMG 3009/3011 16012KT BECMG 3101/3103 08007KT BECMG 3110/3112 16012KT =
TAF LIMC 300500Z 3006/3112 VRB05KT CAVOK =
TAF LIME 300500Z 3006/3106 VRB05KT CAVOK =
TAF LIMF 300500Z 3006/3106 VRB05KT CAVOK =
TAF LIMJ 300500Z 3006/3106 VRB05KT CAVOK =
TAF LIML 300500Z 3006/3106 VRB05KT CAVOK =
TAF LIMN 300800Z 3009/3018 11004KT CAVOK PROB30 TEMPO 3012/3018 18015KT =
TAF LIMS 300800Z 3009/3018 07006KT CAVOK BECMG 3015/3018 21006KT =
SR / SS: 03:28 / 18:52 UTC (Effemeridi Aeroporto di Padova - LIPU 2017-05-30)

Immagini e previsioni meteo non aeronautiche

 

 

Immagini dal Radar Meteorologico del sito ARPAV. Orario UTC.

 

Immagine dal sito Meteo Sat Online

 

Legenda codici ICAO del nord Italia

 

In ordine di codice   In ordine di località
LIMC
Milano / Malpensa LIMG Albenga
LIME Bergamo / Orio Al Serio LIPA Aviano
LIMF Torino / Caselle LIME Bergamo / Orio Al Serio
LIMG Albenga LIPE Bologna / Borgo Panigale
LIMH Pian Rosa LIPB Bolzano
LIMJ Genova / Sestri LIPL Brescia / Ghedi
LIMK Torino / Bric Della Croce LIPO Brescia / Montichiari
LIML Milano / Linate LIMU Capo Mele
LIMN Novara / Cameri LIPC Cervia
LIMO Monte Bisbino LIVD Dobbiaco
LIMS Piacenza LIPP Dova Area Control Center
LIMT Passo Della Cisa LIPY Falconara
LIMU Capo Mele LIPF Ferrara
LIMV Passo Dei Giovi LIPK Forli
LIMY Monte Malanotte LIVF Frontone
LIPA Aviano LIMJ Genova / Sestri
LIPB Bolzano LIML Milano / Linate
LIPC Cervia
LIMC
Milano / Malpensa
LIPD Udine / Campoformido LIMO Monte Bisbino
LIPE Bologna / Borgo Panigale LIVC Monte Cimone
LIPF Ferrara LIMY Monte Malanotte
LIPH Treviso / S. Angelo LIMN Novara / Cameri
LIPI Udine / Rivolto LIPU Padova
LIPK Forli LIVP Paganella
LIPL Brescia / Ghedi LIMV Passo Dei Giovi
LIPO Brescia / Montichiari LIMT Passo Della Cisa
LIPP Dova Area Control Center LIVR Passo Rolle
LIPQ Ronchi Dei Legionari LIMS Piacenza
LIPR Rimini LIMH Pian Rosa
LIPS Treviso / Istrana LIVM Punta Marina
LIPT Vicenza LIVE Resia Pass
LIPU Padova LIPR Rimini
LIPX Verona / Villafranca LIPQ Ronchi Dei Legionari
LIPY Falconara LIVO Tarvisio
LIPZ Venezia / Tessera LIMK Torino / Bric Della Croce
LIVC Monte Cimone LIMF Torino / Caselle
LIVD Dobbiaco LIPS Treviso / Istrana
LIVE Resia Pass LIPH Treviso / S. Angelo
LIVF Frontone LIVT
Trieste
LIVM Punta Marina LIPD Udine / Campoformido
LIVO Tarvisio LIPI Udine / Rivolto
LIVP Paganella LIPZ Venezia / Tessera
LIVR Passo Rolle LIPX Verona / Villafranca
LIVT Trieste LIPT Vicenza

 

 

 

 

 

 

 

 

 

 

 

 

 

 

 

 

 

 

 

 

 

 

 

 

 

 

 

 

 

 

 

 

 

 

 

 

 

 

 

 

 

 

 

 

 

 

 

 

 

 

 

 

 

 

 

 

 

 

 

 

L'Aeroclub di Padova si limita a riportare informazioni fornite da terze parti, e non ha quindi alcuna responsabilità sul contenuto. Per la pianificazione dei propri voli si raccomanda l'utilizzo delle fonti ufficiali.

Copyright 2011. Free joomla templates | © Aeroclub Padova - Scuola di Volo, Ditta di manutenzione, CAMO Via Sorio, 89 - 35141 Padova Tel. 049 8718599 Fax 049 8717699 info@aeroclubpadova.it